Latest Coastal Weather Observations for St Lawrence

IDQ60701

Issued at 2:12 am EST Sunday 2 August 2015 (issued every 10 minutes, with the page automatically refreshed every 10 minutes)

About coastal observations | Map of coastal stations | Coastal observations for QLD | Marine services | Other Formats
Station Details ID: 033210 Name: ST LAWRENCE Lat: -22.35 Lon: 149.52 Height: 9.19 m
Data from the previous 72 hours. | See also: Recent months at St Lawrence
Date/Time
EST
Temp

°C
Wind Pressure Rain
since 9am
mm
Weather Cloud Vis
km
Sea
Height
m
Swell
Dir
 
Speed
knots
Gust
knots
hPa Trend Height
m
Period
s
Dir
02/02:00am 11.1 SW 2 4 1021.6 - 0.0 - - - - - - -
02/01:30am 10.9 SW 3 3 1021.8 - 0.0 - - - - - - -
02/01:00am 11.2 CALM 0 0 1022.1 - 0.0 - - - - - - -
02/12:30am 11.9 SW 3 4 1022.4 - 0.0 - - - - - - -
02/12:00am 11.6 WSW 3 5 1022.4 - 0.0 - - - - - - -
 
Date/Time
EST
Temp

°C
Wind Pressure Rain
since 9am
mm
Weather Cloud Vis
km
Sea
Height
m
Swell
Dir
 
Speed
knots
Gust
knots
hPa Trend Height
m
Period
s
Dir
01/11:30pm 11.7 CALM 0 0 1022.3 - 0.0 - - - - - - -
01/11:00pm 13.0 SSW 3 4 1022.3 - 0.0 - - - - - - -
01/10:30pm 13.1 CALM 0 4 1022.2 - 0.0 - - - - - - -
01/10:00pm 12.6 CALM 0 0 1022.1 - 0.0 - - - - - - -
01/09:30pm 13.6 CALM 0 0 1022.0 - 0.0 - - - - - - -
01/09:00pm 14.9 CALM 0 0 1022.0 - 0.0 - - - - - - -
01/08:30pm 14.6 CALM 0 0 1021.9 - 0.0 - - - - - - -
01/08:00pm 15.3 CALM 0 0 1021.4 - 0.0 - - - - - - -
01/07:30pm 16.2 CALM 0 0 1021.0 - 0.0 - - - - - - -
01/07:00pm 17.6 CALM 0 0 1020.6 - 0.0 - - - - - - -
01/06:30pm 19.1 NE 4 5 1020.4 - 0.0 - - - - - - -
01/06:00pm 19.8 NNE 5 6 1020.2 - 0.0 - - - - - - -
01/05:30pm 21.2 NNE 7 9 1020.0 - 0.0 - - - - - - -
01/05:00pm 22.5 NNE 8 11 1020.0 - 0.0 - - - - - - -
01/04:30pm 23.3 NNE 7 11 1019.8 - 0.0 - - - - - - -
01/04:00pm 23.6 NNE 8 11 1019.9 - 0.0 - - - - - - -
01/03:30pm 23.8 NNE 8 11 1020.0 - 0.0 - - - - - - -
01/03:00pm 24.0 NNE 8 10 1020.0 - 0.0 - - - - - - -
01/02:30pm 24.2 NNE 9 11 1020.2 - 0.0 - - - - - - -
01/02:00pm 24.3 NNE 9 13 1020.5 - 0.0 - - - - - - -
01/01:30pm 24.3 NNE 9 12 1021.0 - 0.0 - - - - - - -
01/01:00pm 23.5 NNE 9 13 1021.4 - 0.0 - - - - - - -
01/12:30pm 23.5 NNE 9 13 1022.1 - 0.0 - - - - - - -
01/12:00pm 23.2 NNE 10 12 1022.5 - 0.0 - - - - - - -
01/11:30am 23.1 NNE 9 12 1022.8 - 0.0 - - - - - - -
01/11:00am 23.1 NE 7 11 1023.2 - 0.0 - - - - - - -
01/10:30am 22.8 NNE 5 12 1023.4 - 0.0 - - - - - - -
01/10:00am 21.7 ESE 2 6 1023.6 - 0.0 - - - - - - -
01/09:30am 20.0 SW 2 5 1023.5 - 0.0 - - - - - - -
01/09:00am 17.6 SSW 3 4 1023.3 - 0.0 - - - - - - -
01/08:30am 15.6 SSW 4 5 1023.2 - 0.0 - - - - - - -
01/08:00am 12.4 CALM 0 0 1023.0 - 0.0 - - - - - - -
01/07:30am 10.7 CALM 0 0 1022.7 - 0.0 - - - - - - -
01/07:00am 9.6 CALM 0 0 1022.5 - 0.0 - - - - - - -
01/06:30am 9.9 CALM 0 0 1022.2 - 0.0 - - - - - - -
01/06:00am 10.3 SW 2 3 1021.9 - 0.0 - - - - - - -
01/05:30am 9.4 SW 3 3 1021.6 - 0.0 - - - - - - -
01/05:00am 9.8 SW 3 4 1021.5 - 0.0 - - - - - - -
01/04:30am 10.7 S 3 4 1021.2 - 0.0 - - - - - - -
01/04:00am 11.7 S 4 6 1021.2 - 0.0 - - - - - - -
01/03:30am 11.9 S 5 6 1021.2 - 0.0 - - - - - - -
01/03:00am 11.8 S 4 5 1021.2 - 0.0 - - - - - - -
01/02:30am 12.4 S 4 5 1021.2 - 0.0 - - - - - - -
01/02:00am 12.2 SW 3 4 1021.4 - 0.0 - - - - - - -
01/01:30am 12.3 CALM 0 0 1021.5 - 0.0 - - - - - - -
01/01:00am 12.5 WSW 2 4 1021.6 - 0.0 - - - - - - -
01/12:30am 12.0 CALM 0 0 1021.6 - 0.0 - - - - - - -
01/12:00am 12.7 CALM 0 0 1021.7 - 0.0 - - - - - - -
 
Date/Time
EST
Temp

°C
Wind Pressure Rain
since 9am
mm
Weather Cloud Vis
km
Sea
Height
m
Swell
Dir
 
Speed
knots
Gust
knots
hPa Trend Height
m
Period
s
Dir
31/11:30pm 13.3 CALM 0 0 1021.9 - 0.0 - - - - - - -
31/11:00pm 13.7 WSW 2 3 1022.0 - 0.0 - - - - - - -
31/10:30pm 14.4 CALM 0 0 1021.9 - 0.0 - - - - - - -
31/10:00pm 14.3 WSW 3 4 1021.7 - 0.0 - - - - - - -
31/09:30pm 14.3 CALM 0 0 1021.5 - 0.0 - - - - - - -
31/09:00pm 15.1 CALM 0 0 1021.1 - 0.0 - - - - - - -
31/08:30pm 15.7 CALM 0 0 1021.0 - 0.0 - - - - - - -
31/08:00pm 15.7 CALM 0 2 1021.0 - 0.0 - - - - - - -
31/07:30pm 17.2 CALM 0 0 1020.8 - 0.0 - - - - - - -
31/07:00pm 17.9 CALM 0 3 1020.4 - 0.0 - - - - - - -
31/06:30pm 18.8 NNE 4 5 1020.3 - 0.0 - - - - - - -
31/06:00pm 19.7 NE 6 8 1020.2 - 0.0 - - - - - - -
31/05:30pm 20.9 NE 7 9 1019.9 - 0.0 - - - - - - -
31/05:00pm 22.3 NE 7 9 1019.6 - 0.0 - - - - - - -
31/04:30pm 23.1 NE 7 10 1019.5 - 0.0 - - - - - - -
31/04:00pm 23.3 NNE 9 11 1019.4 - 0.0 - - - - - - -
31/03:30pm 24.5 NNE 9 13 1019.5 - 0.0 - - - - - - -
31/03:00pm 24.4 NNE 11 13 1019.7 - 0.0 - - - - - - -
31/02:30pm 24.7 NE 8 13 1020.1 - 0.0 - - - - - - -
31/02:00pm 23.6 ENE 5 9 1020.5 - 0.0 - - - - - - -
31/01:30pm 24.6 NE 8 13 1020.7 - 0.0 - - - - - - -
31/01:00pm 22.8 NE 4 13 1021.4 - 0.0 - - - - - - -
31/12:30pm 23.9 NNE 6 10 1021.9 - 0.0 - - - - - - -
31/12:00pm 23.5 ESE 5 10 1022.7 - 0.0 - - - - - - -
31/11:30am 23.5 ESE 6 10 1023.2 - 0.0 - - - - - - -
31/11:00am 22.9 ESE 5 9 1023.5 - 0.0 - - - - - - -
31/10:30am 22.2 E 6 8 1024.0 - 0.0 - - - - - - -
31/10:00am 21.3 ENE 4 8 1024.2 - 0.0 - - - - - - -
31/09:30am 20.2 S 5 9 1024.3 - 0.0 - - - - - - -
31/09:00am 18.6 S 7 10 1024.1 - 0.0 - - - - - - -
31/08:30am 16.6 SSW 4 7 1023.7 - 0.0 - - - - - - -
31/08:00am 13.8 CALM 0 0 1023.4 - 0.0 - - - - - - -
31/07:30am 12.1 SSW 3 4 1023.2 - 0.0 - - - - - - -
31/07:00am 11.2 WSW 4 5 1023.1 - 0.0 - - - - - - -
31/06:30am 11.1 SW 3 4 1022.8 - 0.0 - - - - - - -
31/06:00am 11.0 SW 3 3 1022.5 - 0.0 - - - - - - -
31/05:30am 10.8 SW 3 4 1022.1 - 0.0 - - - - - - -
31/05:00am 9.8 SW 2 4 1021.7 - 0.0 - - - - - - -
31/04:30am 9.3 S 1 3 1021.8 - 0.0 - - - - - - -
31/04:00am 11.3 SSW 3 4 1022.1 - 0.0 - - - - - - -
31/03:30am 11.0 SW 4 4 1022.2 - 0.0 - - - - - - -
31/03:00am 11.5 CALM 0 0 1022.1 - 0.0 - - - - - - -
31/02:30am 11.6 CALM 0 3 1022.2 - 0.0 - - - - - - -
31/02:00am 12.7 S 5 6 1022.4 - 0.0 - - - - - - -
31/01:30am 13.4 S 5 6 1022.8 - 0.0 - - - - - - -
31/01:00am 11.6 SW 1 4 1022.9 - 0.0 - - - - - - -
31/12:30am 13.1 SSW 1 3 1023.2 - 0.0 - - - - - - -
31/12:00am 13.5 SSW 3 4 1023.6 - 0.0 - - - - - - -
 
Date/Time
EST
Temp

°C
Wind Pressure Rain
since 9am
mm
Weather Cloud Vis
km
Sea
Height
m
Swell
Dir
 
Speed
knots
Gust
knots
hPa Trend Height
m
Period
s
Dir
30/11:30pm 14.0 WSW 3 4 1023.7 - 0.0 - - - - - - -
30/11:00pm 14.9 SW 5 7 1024.0 - 0.0 - - - - - - -
30/10:30pm 14.0 CALM 0 0 1023.9 - 0.0 - - - - - - -
30/10:00pm 14.9 SE 2 3 1023.9 - 0.0 - - - - - - -
30/09:30pm 16.1 CALM 0 0 1024.0 - 0.0 - - - - - - -
30/09:00pm 17.1 ESE 3 4 1023.9 - 0.0 - - - - - - -
30/08:30pm 18.2 CALM 0 0 1023.9 - 0.0 - - - - - - -
30/08:00pm 17.8 NE 1 3 1023.6 - 0.0 - - - - - - -
30/07:30pm 18.1 NE 3 4 1023.2 - 0.0 - - - - - - -
30/07:00pm 19.2 CALM 0 0 1022.9 - 0.0 - - - - - - -
30/06:30pm 19.5 CALM 0 0 1022.6 - 0.0 - - - - - - -
30/06:00pm 20.0 N 3 4 1022.3 - 0.0 - - - - - - -
30/05:30pm 20.5 NE 4 5 1022.0 - 0.0 - - - - - - -
30/05:00pm 21.1 ENE 6 9 1021.9 - 0.0 - - - - - - -
30/04:30pm 22.3 ENE 5 9 1021.7 - 0.0 - - - - - - -
30/04:00pm 22.8 E 5 8 1021.7 - 0.0 - - - - - - -
30/03:30pm 22.9 E 6 9 1021.8 - 0.0 - - - - - - -
30/03:00pm 23.2 E 7 11 1021.8 - 0.0 - - - - - - -
30/02:30pm 22.9 E 6 11 1022.1 - 0.0 - - - - - - -
30/02:00pm 22.3 E 10 16 1022.6 - 0.0 - - - - - - -
30/01:30pm 23.5 ENE 7 13 1022.6 - 0.0 - - - - - - -
30/01:00pm 24.5 ENE 8 13 1022.8 - 0.0 - - - - - - -
30/12:30pm 24.1 ESE 7 14 1023.2 - 0.0 - - - - - - -
30/12:00pm 23.5 ESE 6 9 1023.7 - 0.0 - - - - - - -
30/11:30am 21.7 E 7 11 1024.4 - 0.0 - - - - - - -
30/11:00am 21.3 ESE 7 13 1025.1 - 0.0 - - - - - - -
30/10:30am 21.1 ESE 7 11 1025.3 - 0.0 - - - - - - -
30/10:00am 21.0 ESE 9 13 1025.4 - 0.0 - - - - - - -
30/09:30am 19.9 SE 8 13 1025.6 - 0.0 - - - - - - -
30/09:00am 18.7 SSE 7 10 1025.7 - 0.0 - - - - - - -
30/08:30am 17.1 S 6 9 1025.5 - 0.0 - - - - - - -
30/08:00am 16.2 S 5 9 1025.4 - 0.0 - - - - - - -
30/07:30am 13.6 SSW 4 6 1025.2 - 0.0 - - - - - - -
30/07:00am 12.2 SSW 3 3 1025.1 - 0.0 - - - - - - -
30/06:30am 12.1 S 4 6 1024.9 - 0.0 - - - - - - -
30/06:00am 12.5 SSW 4 6 1024.6 - 0.0 - - - - - - -
30/05:30am 12.9 S 6 8 1024.5 - 0.0 - - - - - - -
30/05:00am 13.1 S 6 9 1024.2 - 0.0 - - - - - - -
30/04:30am 13.4 S 7 10 1024.3 - 0.0 - - - - - - -
30/04:00am 13.6 S 7 9 1024.4 - 0.0 - - - - - - -
30/03:30am 13.5 S 6 8 1024.6 - 0.0 - - - - - - -
30/03:00am 13.9 S 6 8 1024.7 - 0.0 - - - - - - -
30/02:30am 13.6 S 6 8 1024.8 - 0.0 - - - - - - -

Other Formats:

Comma delimited format used in spreadsheet applications
http://www.bom.gov.au/fwo/IDQ60701/IDQ60701.95369.axf

JavaScript Object Notation format (JSON) in row-major order
http://www.bom.gov.au/fwo/IDQ60701/IDQ60701.95369.json